Oundle, United Kingdom
Current Conditions -  °F | °C
As of 1:50 PM on Tuesday 27 Jan 2015 (Local Time) from EGXT Reporting Station
Broken Clouds Broken Clouds  
Wind Chill: 40°   Ceiling: 3000
Heat Index: 46°   Visibility: 6mi
Dew Point: 41°   Wind: 14mph
Humidity: 81%   Direction: 280°W
Pressure: 30.24"   Gusts: NA
Location:  52.48°N, 0.47°W
Report Text: EGXT 271350Z 28012KT 9999 FEW016 BKN030 08/05 Q1024 BLU
Loading
Personal Weather Stations






























Interactive Weather Map New forecast layout! Learn more

10-Day Weather Forecast

Advertisements
Track Severe Weather on mobile